LFMH/EBU METAR and TAF weather

Enter ICAO airport designator
Station Type Date Time Source
LFMH METAR 2020/01/24 21:00 UTC NOAA

LFMH 242100Z AUTO 16005KT 7000 NSC 04/02 Q1022 NOSIG


Station Type Date Time Source
LFMH Decoded METAR 2020/01/24 21:00 UTC NOAA

St-Etienne Boutheon, France (LFMH) 45-32N 004-18E 402M
Jan 24, 2020 - 04:00 PM EST / 2020.01.24 2100 UTC
Wind: from the SSE (160 degrees) at 6 MPH (5 KT):0
Visibility: 4 mile(s):0
Temperature: 39 F (4 C)
Dew Point: 35 F (2 C)
Relative Humidity: 86%
Pressure (altimeter): 30.18 in. Hg (1022 hPa)
ob: LFMH 242100Z AUTO 16005KT 7000 NSC 04/02 Q1022 NOSIG
cycle: 21

Station Type Date Time Source
LFMH TAF 2020/01/24 21:15 UTC NOAA

TAF LFMH 242108Z 2421/2515 CNL

Example: see airport list